createdAt,value
2022-07-26T00:00:14.140Z,45.31
2022-07-26T00:03:35.675Z,45.44
2022-07-26T00:06:38.055Z,45.51
2022-07-26T00:09:40.506Z,45.36
2022-07-26T00:12:44.320Z,45.45
2022-07-26T00:15:47.173Z,45.64
2022-07-26T00:18:48.713Z,45.69
2022-07-26T00:22:10.251Z,45.83
2022-07-26T00:25:11.812Z,45.89
2022-07-26T00:28:13.445Z,45.95
2022-07-26T00:31:15.083Z,46.04
2022-07-26T00:34:16.729Z,46.12
2022-07-26T00:37:20.627Z,46.28
2022-07-26T00:40:22.428Z,46.15
2022-07-26T00:43:24.289Z,46.18
2022-07-26T00:46:26.105Z,46.11
2022-07-26T00:49:27.818Z,46.26
2022-07-26T00:52:29.612Z,46.46
2022-07-26T00:55:31.446Z,46.49
2022-07-26T00:58:33.205Z,46.67
2022-07-26T01:01:34.851Z,46.65
2022-07-26T01:04:36.680Z,46.41
2022-07-26T01:07:38.954Z,46.26
2022-07-26T01:10:43.123Z,46.39
2022-07-26T01:13:49.756Z,46.37
2022-07-26T01:16:52.643Z,46.46
2022-07-26T01:19:54.304Z,46.38
2022-07-26T01:22:55.872Z,46.37
2022-07-26T01:25:57.442Z,46.45
2022-07-26T01:28:59.292Z,46.47
2022-07-26T01:32:03.343Z,46.66
2022-07-26T01:35:05.413Z,46.62
2022-07-26T01:38:07.044Z,46.71
2022-07-26T01:41:09.322Z,46.94
2022-07-26T01:44:11.203Z,46.99
2022-07-26T01:47:13.000Z,47.23
2022-07-26T01:50:14.696Z,47.34
2022-07-26T01:53:16.260Z,47.48
2022-07-26T01:56:17.772Z,47.50
2022-07-26T01:59:19.341Z,47.54
2022-07-26T02:02:20.896Z,47.60
2022-07-26T02:05:22.566Z,47.90
2022-07-26T02:08:24.153Z,48.03
2022-07-26T02:11:25.852Z,48.05
2022-07-26T02:14:28.143Z,48.25
2022-07-26T02:17:29.802Z,48.23
2022-07-26T02:20:32.674Z,48.25
2022-07-26T02:23:35.238Z,48.43
2022-07-26T02:26:42.281Z,48.51
2022-07-26T02:29:43.934Z,48.65
2022-07-26T02:32:45.480Z,48.76
2022-07-26T02:35:47.666Z,48.96
2022-07-26T02:38:49.205Z,49.03
2022-07-26T02:41:50.705Z,49.00
2022-07-26T02:44:53.459Z,49.02
2022-07-26T02:47:55.983Z,49.08
2022-07-26T02:50:57.623Z,49.18
2022-07-26T02:53:59.254Z,49.19
2022-07-26T02:57:00.839Z,49.41
2022-07-26T03:00:03.962Z,49.52
2022-07-26T03:03:05.567Z,49.52
2022-07-26T03:06:07.213Z,49.59
2022-07-26T03:09:08.735Z,49.75
2022-07-26T03:12:10.265Z,49.69
2022-07-26T03:15:12.109Z,49.78
2022-07-26T03:18:13.697Z,49.98
2022-07-26T03:21:15.198Z,50.07
2022-07-26T03:24:16.742Z,50.02
2022-07-26T03:27:18.242Z,50.08
2022-07-26T03:30:24.881Z,50.10
2022-07-26T03:33:29.735Z,50.15
2022-07-26T03:36:31.554Z,50.31
2022-07-26T03:39:33.142Z,50.43
2022-07-26T03:42:36.040Z,50.42
2022-07-26T03:45:37.604Z,50.54
2022-07-26T03:48:39.207Z,50.60
2022-07-26T03:51:40.801Z,50.74
2022-07-26T03:54:42.343Z,51.08
2022-07-26T03:57:43.911Z,51.16
2022-07-26T04:00:46.026Z,51.21
2022-07-26T04:03:47.957Z,51.43
2022-07-26T04:06:49.639Z,51.58
2022-07-26T04:09:52.116Z,51.58
2022-07-26T04:12:53.685Z,51.65
2022-07-26T04:15:55.541Z,51.76
2022-07-26T04:18:57.378Z,51.36
2022-07-26T04:21:58.902Z,51.26
2022-07-26T04:25:00.413Z,51.12
2022-07-26T04:28:02.493Z,51.07
2022-07-26T04:31:03.949Z,50.77
2022-07-26T04:34:05.834Z,50.87
2022-07-26T04:37:07.416Z,50.95
2022-07-26T04:40:10.442Z,50.84
2022-07-26T04:43:15.609Z,51.02
2022-07-26T04:46:18.735Z,50.93
2022-07-26T04:49:20.285Z,51.01
2022-07-26T04:52:21.809Z,50.98
2022-07-26T04:55:23.684Z,51.07
2022-07-26T04:58:25.590Z,50.98
2022-07-26T05:01:27.225Z,50.94
2022-07-26T05:04:28.804Z,50.71
2022-07-26T05:07:48.127Z,50.49
2022-07-26T05:10:55.250Z,50.53
2022-07-26T05:13:57.179Z,50.44
2022-07-26T05:16:58.796Z,50.21
2022-07-26T05:20:14.201Z,49.91
2022-07-26T05:23:16.184Z,50.05
2022-07-26T05:26:17.696Z,49.88
2022-07-26T05:29:19.192Z,49.95
2022-07-26T05:32:21.901Z,50.17
2022-07-26T05:35:23.762Z,50.08
2022-07-26T05:38:25.370Z,50.10
2022-07-26T05:41:26.920Z,49.92
2022-07-26T05:44:28.438Z,49.86
2022-07-26T05:47:32.176Z,49.84
2022-07-26T05:50:33.693Z,49.68
2022-07-26T05:53:35.974Z,49.69
2022-07-26T05:56:37.756Z,49.61
2022-07-26T05:59:39.324Z,49.53
2022-07-26T06:02:41.544Z,49.46
2022-07-26T06:05:43.149Z,49.54
2022-07-26T06:08:45.433Z,49.75
2022-07-26T06:11:46.992Z,49.94
2022-07-26T06:14:48.570Z,50.34
2022-07-26T06:17:50.168Z,50.86
2022-07-26T06:20:51.874Z,51.29
2022-07-26T06:23:53.515Z,51.52
2022-07-26T06:27:04.486Z,51.79
2022-07-26T06:30:07.753Z,52.03
2022-07-26T06:33:09.527Z,52.11
2022-07-26T06:36:11.413Z,52.19
2022-07-26T06:39:13.058Z,52.13
2022-07-26T06:42:14.731Z,51.94
2022-07-26T06:45:16.387Z,51.80
2022-07-26T06:48:18.076Z,51.76
2022-07-26T06:51:19.605Z,51.71
2022-07-26T06:54:21.247Z,51.60
2022-07-26T06:57:22.923Z,51.86
2022-07-26T07:00:24.563Z,51.95
2022-07-26T07:03:26.568Z,52.18
2022-07-26T07:06:28.084Z,52.44
2022-07-26T07:09:29.660Z,52.51
2022-07-26T07:12:31.533Z,52.74
2022-07-26T07:15:33.376Z,53.05
2022-07-26T07:18:35.239Z,53.18
2022-07-26T07:21:36.880Z,53.41
2022-07-26T07:24:39.145Z,53.57
2022-07-26T07:27:40.893Z,53.96
2022-07-26T07:30:42.544Z,54.09
2022-07-26T07:33:53.402Z,54.59
2022-07-26T07:36:55.434Z,54.89
2022-07-26T07:39:59.460Z,55.26
2022-07-26T07:43:01.411Z,55.51
2022-07-26T07:46:03.072Z,55.98
2022-07-26T07:49:06.531Z,56.51
2022-07-26T07:52:08.452Z,56.84
2022-07-26T07:58:32.234Z,57.56
2022-07-26T08:01:39.430Z,57.81
2022-07-26T08:04:42.752Z,58.14
2022-07-26T08:07:44.387Z,58.30
2022-07-26T08:10:52.002Z,58.48
2022-07-26T08:13:54.075Z,58.77
2022-07-26T08:16:57.337Z,59.03
2022-07-26T08:20:00.627Z,59.25
2022-07-26T08:23:05.000Z,59.25
2022-07-26T08:26:07.081Z,59.56
2022-07-26T08:29:08.938Z,59.76
2022-07-26T08:32:10.664Z,60.04
2022-07-26T08:35:17.327Z,60.31
2022-07-26T08:38:20.939Z,60.35
2022-07-26T08:41:22.703Z,60.50
2022-07-26T08:44:24.276Z,60.56
2022-07-26T08:47:37.682Z,60.69
2022-07-26T08:50:44.918Z,60.74
2022-07-26T08:53:49.595Z,60.79
2022-07-26T08:56:52.794Z,60.92
2022-07-26T09:00:14.098Z,61.05
2022-07-26T09:03:37.211Z,61.24
2022-07-26T09:06:38.824Z,61.30
2022-07-26T09:10:00.249Z,61.52
2022-07-26T09:13:01.823Z,61.59
2022-07-26T09:16:09.936Z,61.69
2022-07-26T09:19:22.000Z,61.86
2022-07-26T09:22:23.735Z,62.02
2022-07-26T09:25:26.833Z,62.27
2022-07-26T09:28:31.244Z,62.16
2022-07-26T09:31:33.742Z,62.34
2022-07-26T09:34:35.421Z,62.48
2022-07-26T09:37:39.682Z,62.42
2022-07-26T09:40:41.790Z,62.48
2022-07-26T09:43:51.563Z,62.58
2022-07-26T09:46:57.724Z,62.68
2022-07-26T09:50:13.416Z,62.58
2022-07-26T09:53:15.175Z,62.64
2022-07-26T09:56:18.542Z,62.80
2022-07-26T09:59:29.368Z,62.72
2022-07-26T10:02:32.383Z,62.87
2022-07-26T10:05:34.167Z,62.85
2022-07-26T10:08:36.250Z,62.87
2022-07-26T10:11:43.966Z,62.98
2022-07-26T10:14:51.133Z,63.04
2022-07-26T10:17:54.163Z,63.14
2022-07-26T10:20:55.889Z,63.19
2022-07-26T10:24:02.341Z,63.18
2022-07-26T10:27:05.573Z,63.19
2022-07-26T10:30:19.653Z,63.12
2022-07-26T10:33:24.098Z,63.28
2022-07-26T10:36:37.978Z,63.09
2022-07-26T10:39:39.612Z,63.00
2022-07-26T10:42:45.027Z,63.11
2022-07-26T10:45:46.952Z,63.08
2022-07-26T10:49:04.313Z,63.13
2022-07-26T10:52:06.005Z,62.99
2022-07-26T10:55:08.354Z,63.04
2022-07-26T10:58:13.696Z,63.07
2022-07-26T11:01:16.051Z,63.19
2022-07-26T11:04:20.327Z,63.14
2022-07-26T11:07:22.098Z,63.11
2022-07-26T11:10:35.902Z,63.10
2022-07-26T11:13:40.131Z,63.03
2022-07-26T11:16:48.180Z,63.12
2022-07-26T11:19:58.551Z,63.03
2022-07-26T11:23:00.814Z,62.96
2022-07-26T11:26:11.048Z,63.15
2022-07-26T11:29:25.253Z,63.31
2022-07-26T11:32:39.340Z,63.22
2022-07-26T11:35:49.871Z,63.28
2022-07-26T11:38:54.390Z,63.28
2022-07-26T11:41:59.089Z,63.22
2022-07-26T11:45:00.765Z,63.35
2022-07-26T11:48:04.299Z,63.40
2022-07-26T11:51:14.477Z,63.42
2022-07-26T11:54:17.179Z,63.39
2022-07-26T11:57:19.373Z,63.42
2022-07-26T12:00:24.455Z,63.19
2022-07-26T12:03:26.130Z,63.04
2022-07-26T12:06:28.512Z,63.30
2022-07-26T12:09:51.543Z,63.43
2022-07-26T12:13:14.415Z,63.16
2022-07-26T12:16:41.041Z,62.95
2022-07-26T12:19:46.515Z,62.59
2022-07-26T12:23:04.370Z,62.63
2022-07-26T12:26:26.443Z,62.64
2022-07-26T12:29:33.541Z,62.47
2022-07-26T12:32:38.597Z,62.36
2022-07-26T12:35:40.280Z,62.36
2022-07-26T12:38:43.469Z,62.05
2022-07-26T12:41:45.858Z,61.88
2022-07-26T12:44:47.424Z,61.96
2022-07-26T12:47:51.151Z,61.92
2022-07-26T12:50:56.989Z,62.02
2022-07-26T12:54:06.505Z,61.88
2022-07-26T12:57:22.898Z,62.03
2022-07-26T13:00:28.615Z,62.24
2022-07-26T13:03:31.418Z,62.37
2022-07-26T13:06:33.167Z,62.39
2022-07-26T13:09:34.893Z,62.44
2022-07-26T13:12:36.823Z,62.35
2022-07-26T13:15:38.537Z,62.14
2022-07-26T13:18:40.149Z,62.27
2022-07-26T13:21:42.085Z,62.13
2022-07-26T13:24:43.752Z,62.06
2022-07-26T13:27:45.799Z,62.05
2022-07-26T13:30:47.566Z,61.93
2022-07-26T13:33:49.245Z,62.08
2022-07-26T13:36:51.292Z,62.29
2022-07-26T13:39:52.864Z,62.44
2022-07-26T13:42:54.509Z,62.48
2022-07-26T13:45:57.143Z,62.68
2022-07-26T13:49:01.648Z,62.69
2022-07-26T13:52:04.096Z,62.96
2022-07-26T13:55:06.509Z,63.01
2022-07-26T13:58:10.314Z,63.12
2022-07-26T14:01:12.152Z,63.27
2022-07-26T14:04:15.516Z,63.40
2022-07-26T14:07:17.573Z,63.57
2022-07-26T14:10:20.508Z,63.66
2022-07-26T14:13:22.053Z,63.80
2022-07-26T14:16:26.947Z,63.85
2022-07-26T14:19:28.857Z,63.75
2022-07-26T14:22:30.530Z,64.00
2022-07-26T14:25:33.294Z,63.88
2022-07-26T14:28:34.978Z,63.95
2022-07-26T14:31:36.779Z,64.14
2022-07-26T14:34:38.292Z,63.87
2022-07-26T14:37:43.473Z,63.89
2022-07-26T14:40:46.982Z,63.82
2022-07-26T14:43:54.060Z,63.71
2022-07-26T14:46:57.381Z,63.73
2022-07-26T14:50:04.170Z,63.77
2022-07-26T14:53:10.732Z,63.84
2022-07-26T14:56:12.274Z,63.67
2022-07-26T14:59:14.350Z,63.89
2022-07-26T15:02:15.897Z,63.77
2022-07-26T15:05:18.514Z,63.76
2022-07-26T15:08:20.109Z,63.95
2022-07-26T15:11:21.729Z,64.17
2022-07-26T15:14:23.773Z,64.28
2022-07-26T15:17:25.363Z,64.39
2022-07-26T15:20:26.897Z,64.33
2022-07-26T15:23:28.897Z,64.49
2022-07-26T15:26:30.704Z,64.61
2022-07-26T15:29:32.381Z,64.71
2022-07-26T15:32:34.777Z,64.70
2022-07-26T15:35:36.540Z,64.79
2022-07-26T15:38:39.825Z,64.93
2022-07-26T15:41:43.104Z,64.96
2022-07-26T15:44:44.696Z,64.92
2022-07-26T15:47:59.072Z,64.80
2022-07-26T15:51:06.148Z,64.97
2022-07-26T15:54:13.222Z,65.01
2022-07-26T15:57:15.285Z,64.99
2022-07-26T16:00:17.285Z,65.11
2022-07-26T16:03:18.776Z,64.98
2022-07-26T16:06:20.882Z,64.96
2022-07-26T16:09:22.393Z,64.77
2022-07-26T16:12:23.910Z,64.90
2022-07-26T16:15:25.395Z,65.00
2022-07-26T16:18:26.900Z,64.89
2022-07-26T16:21:28.356Z,65.06
2022-07-26T16:24:30.297Z,65.01
2022-07-26T16:27:32.066Z,65.04
2022-07-26T16:30:36.378Z,65.07
2022-07-26T16:33:38.110Z,65.02
2022-07-26T16:36:47.928Z,64.94
2022-07-26T16:39:49.491Z,65.17
2022-07-26T16:42:51.114Z,65.23
2022-07-26T16:45:52.619Z,65.38
2022-07-26T16:48:54.166Z,65.38
2022-07-26T16:51:56.092Z,65.51
2022-07-26T16:54:57.564Z,65.61
2022-07-26T16:57:58.995Z,65.57
2022-07-26T17:01:01.385Z,65.57
2022-07-26T17:04:02.918Z,65.60
2022-07-26T17:10:26.401Z,65.70
2022-07-26T17:13:27.923Z,65.81
2022-07-26T17:16:29.561Z,65.74
2022-07-26T17:19:31.184Z,65.81
2022-07-26T17:22:32.656Z,65.82
2022-07-26T17:25:34.278Z,65.94
2022-07-26T17:28:35.975Z,65.94
2022-07-26T17:31:37.420Z,65.86
2022-07-26T17:34:38.847Z,65.87
2022-07-26T17:37:40.411Z,65.94
2022-07-26T17:40:42.728Z,65.81
2022-07-26T17:43:44.384Z,65.89
2022-07-26T17:46:46.244Z,66.01
2022-07-26T17:49:48.133Z,65.94
2022-07-26T17:52:50.279Z,65.99
2022-07-26T17:55:51.806Z,65.95
2022-07-26T17:58:53.675Z,65.89
2022-07-26T18:01:55.469Z,65.78
2022-07-26T18:04:56.955Z,65.59
2022-07-26T18:07:58.688Z,65.60
2022-07-26T18:11:02.198Z,65.56
2022-07-26T18:14:05.204Z,65.67
2022-07-26T18:17:06.704Z,65.69
2022-07-26T18:20:08.485Z,65.60
2022-07-26T18:23:09.954Z,65.56
2022-07-26T18:26:11.403Z,65.62
2022-07-26T18:29:14.603Z,65.60
2022-07-26T18:32:16.258Z,65.68
2022-07-26T18:35:17.764Z,65.77
2022-07-26T18:38:19.520Z,65.75
2022-07-26T18:41:20.990Z,65.75
2022-07-26T18:44:22.743Z,65.64
2022-07-26T18:47:24.345Z,65.67
2022-07-26T18:50:26.730Z,65.72
2022-07-26T18:53:32.717Z,65.71
2022-07-26T18:56:34.139Z,65.63
2022-07-26T18:59:35.799Z,65.60
2022-07-26T19:02:38.456Z,65.52
2022-07-26T19:05:41.202Z,65.56
2022-07-26T19:08:42.722Z,65.60
2022-07-26T19:11:47.123Z,65.58
2022-07-26T19:14:50.267Z,65.64
2022-07-26T19:17:51.853Z,65.70
2022-07-26T19:20:53.269Z,65.62
2022-07-26T19:23:55.102Z,65.44
2022-07-26T19:26:56.942Z,65.53
2022-07-26T19:30:00.037Z,65.63
2022-07-26T19:33:01.711Z,65.72
2022-07-26T19:36:03.685Z,65.83
2022-07-26T19:39:05.395Z,65.84
2022-07-26T19:42:07.606Z,65.85
2022-07-26T19:45:10.694Z,66.07
2022-07-26T19:48:12.227Z,66.13
2022-07-26T19:51:13.731Z,66.18
2022-07-26T19:54:15.693Z,66.26
2022-07-26T19:57:18.747Z,66.33
2022-07-26T20:00:20.365Z,66.33
2022-07-26T20:03:25.811Z,66.35
2022-07-26T20:06:27.634Z,66.34
2022-07-26T20:09:31.590Z,66.33
2022-07-26T20:12:33.793Z,66.41
2022-07-26T20:15:35.205Z,66.36
2022-07-26T20:18:36.781Z,66.41
2022-07-26T20:21:38.794Z,66.38
2022-07-26T20:24:44.538Z,66.31
2022-07-26T20:27:47.624Z,66.28
2022-07-26T20:30:51.303Z,66.28
2022-07-26T20:33:55.668Z,66.32
2022-07-26T20:36:57.834Z,66.34
2022-07-26T20:39:59.310Z,66.25
2022-07-26T20:43:02.386Z,66.29
2022-07-26T20:46:03.981Z,66.23
2022-07-26T20:49:09.719Z,66.14
2022-07-26T20:52:11.643Z,66.15
2022-07-26T20:55:14.487Z,65.88
2022-07-26T20:58:20.807Z,65.78
2022-07-26T21:01:23.073Z,65.60
2022-07-26T21:04:24.511Z,65.49
2022-07-26T21:07:55.735Z,65.50
2022-07-26T21:10:52.227Z,65.43
2022-07-26T21:13:55.516Z,65.44
2022-07-26T21:16:57.253Z,65.43
2022-07-26T21:20:02.616Z,65.46
2022-07-26T21:23:16.911Z,65.31
2022-07-26T21:26:19.424Z,65.31
2022-07-26T21:29:21.515Z,65.24
2022-07-26T21:32:26.064Z,65.23
2022-07-26T21:35:30.551Z,65.12
2022-07-26T21:38:32.584Z,65.07
2022-07-26T21:41:33.939Z,65.18
2022-07-26T21:44:35.380Z,65.11
2022-07-26T21:47:36.800Z,65.11
2022-07-26T21:50:38.155Z,65.00
2022-07-26T21:53:39.501Z,64.98
2022-07-26T21:56:40.963Z,64.86
2022-07-26T21:59:42.336Z,64.92
2022-07-26T22:02:43.799Z,64.96
2022-07-26T22:05:46.212Z,64.99
2022-07-26T22:08:50.249Z,64.89
2022-07-26T22:11:51.720Z,64.85
2022-07-26T22:14:53.090Z,64.85
2022-07-26T22:17:54.476Z,64.84
2022-07-26T22:20:55.846Z,64.93
2022-07-26T22:23:57.247Z,64.83
2022-07-26T22:26:58.617Z,64.71
2022-07-26T22:30:00.033Z,64.76
2022-07-26T22:33:02.526Z,64.80
2022-07-26T22:36:04.080Z,64.76
2022-07-26T22:39:05.480Z,64.65
2022-07-26T22:42:15.688Z,64.54
2022-07-26T22:45:17.440Z,64.62
2022-07-26T22:48:18.860Z,64.63
2022-07-26T22:51:20.252Z,64.59
2022-07-26T22:54:21.601Z,64.55
2022-07-26T22:57:22.970Z,64.54
2022-07-26T23:00:24.726Z,64.55
2022-07-26T23:03:26.148Z,64.60
2022-07-26T23:06:31.838Z,64.49
2022-07-26T23:09:33.751Z,64.35
2022-07-26T23:12:35.251Z,64.58
2022-07-26T23:15:36.637Z,64.50
2022-07-26T23:18:38.019Z,64.43
2022-07-26T23:21:39.438Z,64.43
2022-07-26T23:24:40.808Z,64.33
2022-07-26T23:27:45.891Z,64.49
2022-07-26T23:30:47.365Z,64.44
2022-07-26T23:33:53.369Z,64.49
2022-07-26T23:36:56.029Z,64.48
2022-07-26T23:39:57.492Z,64.44
2022-07-26T23:42:58.860Z,64.51
2022-07-26T23:46:00.244Z,64.51
2022-07-26T23:49:03.983Z,64.46
2022-07-26T23:52:05.459Z,64.40
2022-07-26T23:55:07.224Z,64.41
2022-07-26T23:58:11.944Z,64.36
